createdAt,value
2022-12-20T00:01:59.393Z,-0.06
2022-12-20T00:04:29.389Z,-0.18
2022-12-20T00:06:59.020Z,-0.21
2022-12-20T00:09:27.461Z,-0.16
2022-12-20T00:11:55.857Z,-0.14
2022-12-20T00:14:24.459Z,-0.15
2022-12-20T00:16:53.074Z,-0.14
2022-12-20T00:19:21.894Z,-0.12
2022-12-20T00:21:52.854Z,-0.15
2022-12-20T00:24:26.103Z,-0.09
2022-12-20T00:26:56.082Z,-0.13
2022-12-20T00:29:24.455Z,-0.12
2022-12-20T00:31:53.475Z,-0.13
2022-12-20T00:34:22.022Z,-0.15
2022-12-20T00:36:52.278Z,-0.24
2022-12-20T00:39:20.778Z,-0.24
2022-12-20T00:41:49.664Z,-0.28
2022-12-20T00:44:18.558Z,-0.33
2022-12-20T00:46:47.534Z,-0.35
2022-12-20T00:49:17.008Z,-0.32
2022-12-20T00:51:45.472Z,-0.38
2022-12-20T00:54:16.026Z,-0.32
2022-12-20T00:56:44.506Z,-0.30
2022-12-20T00:59:13.557Z,-0.36
2022-12-20T01:01:42.217Z,-0.43
2022-12-20T01:04:11.282Z,-0.42
2022-12-20T01:06:39.798Z,-0.52
2022-12-20T01:09:08.271Z,-0.42
2022-12-20T01:11:40.036Z,-0.35
2022-12-20T01:14:12.441Z,-0.28
2022-12-20T01:16:43.085Z,-0.24
2022-12-20T01:19:14.783Z,-0.26
2022-12-20T01:21:45.251Z,-0.28
2022-12-20T01:24:15.069Z,-0.36
2022-12-20T01:26:45.086Z,-0.33
2022-12-20T01:29:16.079Z,-0.32
2022-12-20T01:31:45.431Z,-0.36
2022-12-20T01:34:14.213Z,-0.42
2022-12-20T01:36:42.850Z,-0.28
2022-12-20T01:39:14.737Z,-0.37
2022-12-20T01:41:47.087Z,-0.34
2022-12-20T01:44:52.770Z,-0.26
2022-12-20T01:47:22.541Z,-0.22
2022-12-20T01:49:55.170Z,-0.18
2022-12-20T01:52:33.847Z,-0.14
2022-12-20T01:55:08.113Z,-0.12
2022-12-20T01:57:44.776Z,-0.15
2022-12-20T02:00:14.231Z,-0.12
2022-12-20T02:02:45.335Z,-0.13
2022-12-20T02:05:14.765Z,-0.14
2022-12-20T02:07:50.173Z,-0.12
2022-12-20T02:10:20.994Z,-0.16
2022-12-20T02:12:59.037Z,-0.14
2022-12-20T02:15:38.247Z,-0.16
2022-12-20T02:18:19.734Z,-0.27
2022-12-20T02:21:21.906Z,-0.35
2022-12-20T02:24:24.215Z,-0.23
2022-12-20T02:27:20.429Z,-0.23
2022-12-20T02:30:15.298Z,-0.21
2022-12-20T02:32:51.897Z,-0.20
2022-12-20T02:35:24.173Z,-0.20
2022-12-20T02:37:55.247Z,-0.17
2022-12-20T02:40:27.451Z,-0.21
2022-12-20T02:43:00.314Z,-0.29
2022-12-20T02:45:38.145Z,-0.28
2022-12-20T02:48:11.008Z,-0.30
2022-12-20T02:50:46.349Z,-0.37
2022-12-20T02:53:18.910Z,-0.34
2022-12-20T02:55:52.722Z,-0.34
2022-12-20T02:58:30.199Z,-0.28
2022-12-20T03:01:04.848Z,-0.25
2022-12-20T03:03:36.264Z,-0.26
2022-12-20T03:06:09.723Z,-0.24
2022-12-20T03:08:39.165Z,-0.23
2022-12-20T03:11:07.850Z,-0.24
2022-12-20T03:13:37.008Z,-0.28
2022-12-20T03:16:11.734Z,-0.28
2022-12-20T03:18:41.133Z,-0.36
2022-12-20T03:21:09.806Z,-0.57
2022-12-20T03:23:38.258Z,-0.57
2022-12-20T03:26:08.321Z,-0.58
2022-12-20T03:28:42.465Z,-0.48
2022-12-20T03:31:15.850Z,-0.40
2022-12-20T03:33:49.900Z,-0.37
2022-12-20T03:36:23.379Z,-0.34
2022-12-20T03:38:57.636Z,-0.33
2022-12-20T03:41:28.246Z,-0.35
2022-12-20T03:43:57.430Z,-0.41
2022-12-20T03:46:29.132Z,-0.47
2022-12-20T03:48:58.481Z,-0.45
2022-12-20T03:51:26.994Z,-0.38
2022-12-20T03:53:56.104Z,-0.33
2022-12-20T03:56:31.159Z,-0.33
2022-12-20T03:59:00.335Z,-0.29
2022-12-20T04:01:30.630Z,-0.32
2022-12-20T04:03:59.505Z,-0.30
2022-12-20T04:06:29.287Z,-0.35
2022-12-20T04:08:58.119Z,-0.40
2022-12-20T04:11:31.618Z,-0.37
2022-12-20T04:14:18.047Z,-0.37
2022-12-20T04:16:48.737Z,-0.41
2022-12-20T04:19:17.900Z,-0.28
2022-12-20T04:21:49.218Z,-0.18
2022-12-20T04:24:19.838Z,-0.14
2022-12-20T04:27:12.817Z,-0.20
2022-12-20T04:29:41.363Z,-0.16
2022-12-20T04:32:15.010Z,-0.20
2022-12-20T04:34:43.753Z,-0.20
2022-12-20T04:37:12.730Z,-0.23
2022-12-20T04:39:56.344Z,-0.16
2022-12-20T04:42:28.281Z,-0.25
2022-12-20T04:44:58.262Z,-0.32
2022-12-20T04:47:31.370Z,-0.40
2022-12-20T04:50:00.936Z,-0.43
2022-12-20T04:52:53.195Z,-0.50
2022-12-20T04:55:22.007Z,-0.51
2022-12-20T04:57:51.234Z,-0.51
2022-12-20T05:00:21.225Z,-0.50
2022-12-20T05:02:58.993Z,-0.50
2022-12-20T05:05:28.648Z,-0.47
2022-12-20T05:07:58.958Z,-0.52
2022-12-20T05:10:30.395Z,-0.60
2022-12-20T05:13:08.862Z,-0.63
2022-12-20T05:15:42.867Z,-0.62
2022-12-20T05:18:14.857Z,-0.57
2022-12-20T05:21:12.940Z,-0.58
2022-12-20T05:23:59.683Z,-0.54
2022-12-20T05:26:32.433Z,-0.46
2022-12-20T05:29:02.981Z,-0.43
2022-12-20T05:31:31.886Z,-0.44
2022-12-20T05:34:02.758Z,-0.52
2022-12-20T05:36:34.574Z,-0.61
2022-12-20T05:39:06.555Z,-0.60
2022-12-20T05:41:38.623Z,-0.59
2022-12-20T05:44:08.023Z,-0.50
2022-12-20T05:46:39.526Z,-0.43
2022-12-20T05:49:14.838Z,-0.39
2022-12-20T05:51:43.848Z,-0.29
2022-12-20T05:54:25.502Z,-0.22
2022-12-20T05:57:05.938Z,-0.17
2022-12-20T05:59:38.825Z,-0.16
2022-12-20T06:02:12.295Z,-0.28
2022-12-20T06:04:43.238Z,-0.40
2022-12-20T06:07:20.568Z,-0.42
2022-12-20T06:09:52.856Z,-0.52
2022-12-20T06:12:26.492Z,-0.38
2022-12-20T06:14:55.296Z,-0.38
2022-12-20T06:17:24.088Z,-0.36
2022-12-20T06:19:55.142Z,-0.38
2022-12-20T06:22:24.602Z,-0.37
2022-12-20T06:24:57.384Z,-0.41
2022-12-20T06:27:29.412Z,-0.40
2022-12-20T06:30:09.639Z,-0.47
2022-12-20T06:32:54.421Z,-0.42
2022-12-20T06:35:24.692Z,-0.31
2022-12-20T06:37:56.636Z,-0.29
2022-12-20T06:40:25.824Z,-0.19
2022-12-20T06:42:54.475Z,-0.15
2022-12-20T06:45:25.898Z,-0.10
2022-12-20T06:47:55.377Z,-0.05
2022-12-20T06:50:27.170Z,0.02
2022-12-20T06:52:55.743Z,0.05
2022-12-20T06:55:26.386Z,0.07
2022-12-20T06:57:55.373Z,0.04
2022-12-20T07:00:24.372Z,-0.02
2022-12-20T07:02:53.138Z,-0.07
2022-12-20T07:05:21.676Z,-0.04
2022-12-20T07:07:51.572Z,-0.23
2022-12-20T07:10:20.024Z,-0.18
2022-12-20T07:12:48.792Z,-0.17
2022-12-20T07:15:18.372Z,-0.14
2022-12-20T07:17:47.208Z,-0.07
2022-12-20T07:20:16.980Z,-0.08
2022-12-20T07:22:45.398Z,-0.16
2022-12-20T07:25:16.265Z,-0.12
2022-12-20T07:27:47.389Z,-0.03
2022-12-20T07:30:16.083Z,-0.04
2022-12-20T07:32:44.874Z,0.02
2022-12-20T07:35:14.380Z,0.04
2022-12-20T07:37:43.382Z,-0.03
2022-12-20T07:40:14.707Z,-0.05
2022-12-20T07:42:48.911Z,-0.12
2022-12-20T07:45:18.222Z,-0.12
2022-12-20T07:47:46.587Z,-0.10
2022-12-20T07:50:15.489Z,0.06
2022-12-20T07:52:47.003Z,0.13
2022-12-20T07:55:16.055Z,0.13
2022-12-20T07:57:50.061Z,0.18
2022-12-20T08:00:19.700Z,0.26
2022-12-20T08:02:52.102Z,0.34
2022-12-20T08:05:21.819Z,0.39
2022-12-20T08:07:56.830Z,0.41
2022-12-20T08:10:28.830Z,0.47
2022-12-20T08:12:59.560Z,0.50
2022-12-20T08:15:30.148Z,0.55
2022-12-20T08:17:58.687Z,0.61
2022-12-20T08:20:27.638Z,0.61
2022-12-20T08:22:56.046Z,0.59
2022-12-20T08:25:25.244Z,0.54
2022-12-20T08:27:54.044Z,0.68
2022-12-20T08:30:23.862Z,0.65
2022-12-20T08:32:52.864Z,0.77
2022-12-20T08:35:21.424Z,0.79
2022-12-20T08:37:52.983Z,0.83
2022-12-20T08:40:21.838Z,0.81
2022-12-20T08:42:50.518Z,0.83
2022-12-20T08:45:20.119Z,0.77
2022-12-20T08:47:49.938Z,0.88
2022-12-20T08:50:19.511Z,0.88
2022-12-20T08:52:48.435Z,0.88
2022-12-20T08:55:17.362Z,0.92
2022-12-20T08:57:45.752Z,0.96
2022-12-20T09:00:16.038Z,1.01
2022-12-20T09:02:45.013Z,1.00
2022-12-20T09:05:15.289Z,1.03
2022-12-20T09:07:43.717Z,0.97
2022-12-20T09:10:13.547Z,0.90
2022-12-20T09:12:42.164Z,0.90
2022-12-20T09:15:11.945Z,0.85
2022-12-20T09:17:40.784Z,0.86
2022-12-20T09:20:10.255Z,0.84
2022-12-20T09:22:40.295Z,0.88
2022-12-20T09:25:09.689Z,0.87
2022-12-20T09:27:38.111Z,0.86
2022-12-20T09:30:07.760Z,0.95
2022-12-20T09:32:36.313Z,0.91
2022-12-20T09:35:05.133Z,1.03
2022-12-20T09:37:34.067Z,1.09
2022-12-20T09:40:04.431Z,1.08
2022-12-20T09:42:33.627Z,1.19
2022-12-20T09:45:07.735Z,1.27
2022-12-20T09:47:37.932Z,1.41
2022-12-20T09:50:08.119Z,1.53
2022-12-20T09:52:56.990Z,1.59
2022-12-20T09:55:36.024Z,1.59
2022-12-20T09:58:22.632Z,1.62
2022-12-20T10:00:54.253Z,1.60
2022-12-20T10:03:27.644Z,1.68
2022-12-20T10:05:57.992Z,1.71
2022-12-20T10:08:51.583Z,1.78
2022-12-20T10:11:43.492Z,1.76
2022-12-20T10:14:40.690Z,1.86
2022-12-20T10:17:15.311Z,1.88
2022-12-20T10:20:01.794Z,1.98
2022-12-20T10:22:37.536Z,2.03
2022-12-20T10:25:18.240Z,2.04
2022-12-20T10:27:50.960Z,2.07
2022-12-20T10:30:22.089Z,2.06
2022-12-20T10:32:52.619Z,2.17
2022-12-20T10:35:25.564Z,2.26
2022-12-20T10:38:07.580Z,2.38
2022-12-20T10:41:18.923Z,2.44
2022-12-20T10:43:31.733Z,2.53
2022-12-20T10:46:02.865Z,2.58
2022-12-20T10:48:34.470Z,2.57
2022-12-20T10:51:08.361Z,2.63
2022-12-20T10:53:52.494Z,2.59
2022-12-20T10:56:23.447Z,2.56
2022-12-20T10:58:59.888Z,2.53
2022-12-20T11:01:32.111Z,2.52
2022-12-20T11:04:03.031Z,2.54
2022-12-20T11:06:43.170Z,2.55
2022-12-20T11:09:28.052Z,2.55
2022-12-20T11:12:07.883Z,2.47
2022-12-20T11:14:40.173Z,2.37
2022-12-20T11:17:24.337Z,2.37
2022-12-20T11:20:02.506Z,2.45
2022-12-20T11:22:44.183Z,2.43
2022-12-20T11:25:35.396Z,2.47
2022-12-20T11:28:19.473Z,2.51
2022-12-20T11:30:58.407Z,2.66
2022-12-20T11:33:59.569Z,2.82
2022-12-20T11:36:38.471Z,2.82
2022-12-20T11:39:16.963Z,2.82
2022-12-20T11:41:56.633Z,2.84
2022-12-20T11:44:34.293Z,2.90
2022-12-20T11:47:30.313Z,2.94
2022-12-20T11:50:13.587Z,3.04
2022-12-20T11:52:49.495Z,3.00
2022-12-20T11:55:23.165Z,3.07
2022-12-20T12:00:55.261Z,3.22
2022-12-20T12:03:30.168Z,3.15
2022-12-20T12:06:03.493Z,3.18
2022-12-20T12:08:41.298Z,3.15
2022-12-20T12:11:55.810Z,3.06
2022-12-20T12:14:07.442Z,2.99
2022-12-20T12:16:40.321Z,3.01
2022-12-20T12:19:14.026Z,2.98
2022-12-20T12:21:47.983Z,3.00
2022-12-20T12:24:25.116Z,3.00
2022-12-20T12:26:55.275Z,2.75
2022-12-20T12:29:24.179Z,2.90
2022-12-20T12:31:58.298Z,2.93
2022-12-20T12:34:52.835Z,2.72
2022-12-20T12:37:56.432Z,2.90
2022-12-20T12:40:59.772Z,2.90
2022-12-20T12:43:48.181Z,2.86
2022-12-20T12:46:20.954Z,2.90
2022-12-20T12:48:56.391Z,2.92
2022-12-20T12:51:32.570Z,2.90
2022-12-20T12:54:15.262Z,2.93
2022-12-20T12:56:47.697Z,2.93
2022-12-20T12:59:26.102Z,3.00
2022-12-20T13:01:57.345Z,3.02
2022-12-20T13:04:29.451Z,2.99
2022-12-20T13:07:03.161Z,3.00
2022-12-20T13:09:52.632Z,2.93
2022-12-20T13:12:58.750Z,2.86
2022-12-20T13:15:53.661Z,2.83
2022-12-20T13:18:29.314Z,2.85
2022-12-20T13:21:37.051Z,2.77
2022-12-20T13:24:45.115Z,2.80
2022-12-20T13:27:22.839Z,2.75
2022-12-20T13:30:02.475Z,2.83
2022-12-20T13:33:25.585Z,2.84
2022-12-20T13:36:30.073Z,2.84
2022-12-20T13:39:01.525Z,2.85
2022-12-20T13:41:36.032Z,2.83
2022-12-20T13:44:20.825Z,2.86
2022-12-20T13:46:53.432Z,2.79
2022-12-20T13:49:27.097Z,2.70
2022-12-20T13:52:19.119Z,2.87
2022-12-20T13:54:50.355Z,2.79
2022-12-20T13:57:25.773Z,2.82
2022-12-20T14:00:05.416Z,2.79
2022-12-20T14:02:41.619Z,2.68
2022-12-20T14:05:17.743Z,2.63
2022-12-20T14:07:49.633Z,2.73
2022-12-20T14:10:21.135Z,2.78
2022-12-20T14:12:54.844Z,2.78
2022-12-20T14:15:25.739Z,2.85
2022-12-20T14:17:54.448Z,2.78
2022-12-20T14:20:26.510Z,2.72
2022-12-20T14:23:04.527Z,2.64
2022-12-20T14:25:42.317Z,2.59
2022-12-20T14:28:27.024Z,2.56
2022-12-20T14:30:57.165Z,2.55
2022-12-20T14:33:36.746Z,2.53
2022-12-20T14:36:10.034Z,2.53
2022-12-20T14:38:41.441Z,2.54
2022-12-20T14:41:39.185Z,2.60
2022-12-20T14:44:19.298Z,2.58
2022-12-20T14:46:52.603Z,2.50
2022-12-20T14:49:27.326Z,2.59
2022-12-20T14:52:08.731Z,2.56
2022-12-20T14:57:41.405Z,2.63
2022-12-20T15:00:21.272Z,2.58
2022-12-20T15:02:54.394Z,2.56
2022-12-20T15:05:45.405Z,2.51
2022-12-20T15:08:16.284Z,2.48
2022-12-20T15:10:50.532Z,2.48
2022-12-20T15:13:20.926Z,2.51
2022-12-20T15:15:50.754Z,2.45
2022-12-20T15:18:22.406Z,2.42
2022-12-20T15:21:01.343Z,2.42
2022-12-20T15:23:30.555Z,2.44
2022-12-20T15:25:59.489Z,2.45
2022-12-20T15:28:28.348Z,2.48
2022-12-20T15:30:58.566Z,2.52
2022-12-20T15:33:28.975Z,2.62
2022-12-20T15:35:58.579Z,2.63
2022-12-20T15:39:03.606Z,2.65
2022-12-20T15:41:21.814Z,2.66
2022-12-20T15:43:53.543Z,2.69
2022-12-20T15:46:24.130Z,2.62
2022-12-20T15:48:52.730Z,2.71
2022-12-20T15:51:29.038Z,2.69
2022-12-20T15:53:57.906Z,2.67
2022-12-20T15:56:28.746Z,2.64
2022-12-20T15:58:58.813Z,2.64
2022-12-20T16:01:39.979Z,2.60
2022-12-20T16:04:16.032Z,2.63
2022-12-20T16:06:45.293Z,2.63
2022-12-20T16:09:14.203Z,2.47
2022-12-20T16:11:43.402Z,2.54
2022-12-20T16:14:16.822Z,2.54
2022-12-20T16:16:48.276Z,2.57
2022-12-20T16:19:17.290Z,2.41
2022-12-20T16:21:49.277Z,2.37
2022-12-20T16:24:19.319Z,2.54
2022-12-20T16:26:49.629Z,2.58
2022-12-20T16:29:18.000Z,2.58
2022-12-20T16:31:48.622Z,2.41
2022-12-20T16:34:18.410Z,2.55
2022-12-20T16:36:47.712Z,2.58
2022-12-20T16:39:16.457Z,2.51
2022-12-20T16:41:44.930Z,2.49
2022-12-20T16:44:15.819Z,2.49
2022-12-20T16:46:45.980Z,2.49
2022-12-20T16:49:20.483Z,2.45
2022-12-20T16:51:50.751Z,2.35
2022-12-20T16:54:21.741Z,2.40
2022-12-20T16:56:55.268Z,2.43
2022-12-20T16:59:25.645Z,2.38
2022-12-20T17:01:56.840Z,2.34
2022-12-20T17:04:28.074Z,2.35
2022-12-20T17:06:56.564Z,2.38
2022-12-20T17:09:25.338Z,2.38
2022-12-20T17:11:54.044Z,2.36
2022-12-20T17:14:22.618Z,2.37
2022-12-20T17:16:51.520Z,2.40
2022-12-20T17:19:20.240Z,2.37
2022-12-20T17:24:36.990Z,2.33
2022-12-20T17:27:05.860Z,2.42
2022-12-20T17:29:35.444Z,2.43
2022-12-20T17:32:04.694Z,2.46
2022-12-20T17:34:33.062Z,2.44
2022-12-20T17:37:03.642Z,2.58
2022-12-20T17:39:31.984Z,2.76
2022-12-20T17:42:01.504Z,2.85
2022-12-20T17:44:30.284Z,2.92
2022-12-20T17:46:59.136Z,2.91
2022-12-20T17:49:27.488Z,2.92
2022-12-20T17:51:57.236Z,2.97
2022-12-20T17:54:34.937Z,2.98
2022-12-20T17:57:12.875Z,2.87
2022-12-20T17:59:41.369Z,2.95
2022-12-20T18:02:21.975Z,2.90
2022-12-20T18:04:51.260Z,2.91
2022-12-20T18:07:20.415Z,2.98
2022-12-20T18:09:50.752Z,3.05
2022-12-20T18:12:19.351Z,3.05
2022-12-20T18:14:49.765Z,2.97
2022-12-20T18:17:18.107Z,2.90
2022-12-20T18:19:47.327Z,2.77
2022-12-20T18:22:16.048Z,2.83
2022-12-20T18:24:44.440Z,2.79
2022-12-20T18:27:15.125Z,2.78
2022-12-20T18:29:43.492Z,2.76
2022-12-20T18:32:13.353Z,2.65
2022-12-20T18:34:41.794Z,2.64
2022-12-20T18:37:10.569Z,2.57
2022-12-20T18:39:39.403Z,2.46
2022-12-20T18:42:08.208Z,2.35
2022-12-20T18:44:38.841Z,2.40
2022-12-20T18:47:07.657Z,2.50
2022-12-20T18:49:37.913Z,2.51
2022-12-20T18:52:06.903Z,2.51
2022-12-20T18:54:35.241Z,2.41
2022-12-20T18:57:06.562Z,2.34
2022-12-20T18:59:35.710Z,2.40
2022-12-20T19:02:05.687Z,2.34
2022-12-20T19:04:34.866Z,2.40
2022-12-20T19:07:03.212Z,2.49
2022-12-20T19:09:31.629Z,2.56
2022-12-20T19:11:59.965Z,2.62
2022-12-20T19:14:29.214Z,2.69
2022-12-20T19:16:57.966Z,2.72
2022-12-20T19:19:28.299Z,2.73
2022-12-20T19:21:57.106Z,2.73
2022-12-20T19:24:25.747Z,2.68
2022-12-20T19:26:55.222Z,2.69
2022-12-20T19:29:23.878Z,2.71
2022-12-20T19:31:52.657Z,2.53
2022-12-20T19:34:21.139Z,2.71
2022-12-20T19:36:51.820Z,2.71
2022-12-20T19:39:23.701Z,2.60
2022-12-20T19:42:22.376Z,2.58
2022-12-20T19:44:41.609Z,2.65
2022-12-20T19:47:10.006Z,2.70
2022-12-20T19:49:39.277Z,2.70
2022-12-20T19:52:09.492Z,2.68
2022-12-20T19:54:39.723Z,2.58
2022-12-20T19:57:09.066Z,2.46
2022-12-20T19:59:37.453Z,2.30
2022-12-20T20:02:06.932Z,2.28
2022-12-20T20:04:35.658Z,2.33
2022-12-20T20:07:05.204Z,2.33
2022-12-20T20:09:35.103Z,2.41
2022-12-20T20:12:04.776Z,2.38
2022-12-20T20:14:33.485Z,2.22
2022-12-20T20:17:01.874Z,2.27
2022-12-20T20:19:30.634Z,2.37
2022-12-20T20:21:59.240Z,2.36
2022-12-20T20:24:27.930Z,2.24
2022-12-20T20:26:58.549Z,2.28
2022-12-20T20:29:27.357Z,2.23
2022-12-20T20:31:55.817Z,2.15
2022-12-20T20:34:24.708Z,2.09
2022-12-20T20:36:53.080Z,2.05
2022-12-20T20:39:21.953Z,2.03
2022-12-20T20:41:50.365Z,1.89
2022-12-20T20:44:21.275Z,1.86
2022-12-20T20:46:49.710Z,1.90
2022-12-20T20:49:20.140Z,1.33
2022-12-20T20:51:48.861Z,1.81
2022-12-20T20:54:17.342Z,1.84
2022-12-20T20:56:46.203Z,1.94
2022-12-20T20:59:17.856Z,2.05
2022-12-20T21:01:48.687Z,2.18
2022-12-20T21:04:17.253Z,2.20
2022-12-20T21:06:46.456Z,2.29
2022-12-20T21:09:15.453Z,2.33
2022-12-20T21:11:43.932Z,2.29
2022-12-20T21:14:13.539Z,2.30
2022-12-20T21:16:42.349Z,2.28
2022-12-20T21:19:12.920Z,2.17
2022-12-20T21:21:41.328Z,2.00
2022-12-20T21:24:09.827Z,1.96
2022-12-20T21:26:38.840Z,1.94
2022-12-20T21:29:07.304Z,2.03
2022-12-20T21:31:36.407Z,1.93
2022-12-20T21:34:04.940Z,1.96
2022-12-20T21:36:36.439Z,1.97
2022-12-20T21:39:05.211Z,2.06
2022-12-20T21:41:34.109Z,2.16
2022-12-20T21:44:02.495Z,2.26
2022-12-20T21:46:32.722Z,2.32
2022-12-20T21:49:01.300Z,2.38
2022-12-20T21:51:30.917Z,2.39
2022-12-20T21:54:02.015Z,2.40
2022-12-20T21:56:32.686Z,2.42
2022-12-20T21:59:02.912Z,2.27
2022-12-20T22:01:32.292Z,2.31
2022-12-20T22:04:03.081Z,2.27
2022-12-20T22:06:32.174Z,2.27
2022-12-20T22:09:06.283Z,2.29
2022-12-20T22:11:36.274Z,2.32
2022-12-20T22:14:05.119Z,2.27
2022-12-20T22:16:35.181Z,2.20
2022-12-20T22:19:03.984Z,2.14
2022-12-20T22:21:35.545Z,2.09
2022-12-20T22:24:05.612Z,2.07
2022-12-20T22:26:36.167Z,2.06
2022-12-20T22:29:07.102Z,2.03
2022-12-20T22:31:36.647Z,1.89
2022-12-20T22:34:06.224Z,1.82
2022-12-20T22:36:34.631Z,1.87
2022-12-20T22:39:05.295Z,1.94
2022-12-20T22:41:35.244Z,2.04
2022-12-20T22:44:03.757Z,2.11
2022-12-20T22:46:33.009Z,2.06
2022-12-20T22:49:01.573Z,2.12
2022-12-20T22:51:33.524Z,2.14
2022-12-20T22:54:02.885Z,2.22
2022-12-20T22:56:32.569Z,2.31
2022-12-20T22:59:01.381Z,2.30
2022-12-20T23:01:29.884Z,2.21
2022-12-20T23:03:58.939Z,2.12
2022-12-20T23:06:27.716Z,2.10
2022-12-20T23:08:56.202Z,2.10
2022-12-20T23:11:45.219Z,2.16
2022-12-20T23:14:35.122Z,2.20
2022-12-20T23:17:05.797Z,2.21
2022-12-20T23:19:55.316Z,2.17
2022-12-20T23:22:39.517Z,2.04
2022-12-20T23:25:10.953Z,1.92
2022-12-20T23:27:41.336Z,1.78
2022-12-20T23:30:14.516Z,1.87
2022-12-20T23:32:44.393Z,1.87
2022-12-20T23:35:15.658Z,1.94
2022-12-20T23:37:45.453Z,1.88
2022-12-20T23:40:16.811Z,1.68
2022-12-20T23:42:45.941Z,1.68
2022-12-20T23:45:15.877Z,1.71
2022-12-20T23:47:44.801Z,1.70
2022-12-20T23:50:13.458Z,1.92
2022-12-20T23:52:42.846Z,2.01
2022-12-20T23:55:11.240Z,2.10
2022-12-20T23:57:40.369Z,2.09
